createdAt,value
2018-10-05T00:00:14.324Z,58.76
2018-10-05T00:00:49.393Z,58.88
2018-10-05T00:01:23.599Z,58.90
2018-10-05T00:01:58.290Z,59.39
2018-10-05T00:02:32.884Z,59.16
2018-10-05T00:03:07.607Z,59.16
2018-10-05T00:03:42.224Z,58.86
2018-10-05T00:04:16.873Z,59.06
2018-10-05T00:04:51.597Z,58.84
2018-10-05T00:05:26.246Z,58.95
2018-10-05T00:06:00.926Z,59.03
2018-10-05T00:06:35.876Z,59.05
2018-10-05T00:07:10.505Z,59.11
2018-10-05T00:07:45.128Z,59.06
2018-10-05T00:08:19.779Z,59.18
2018-10-05T00:08:54.768Z,59.53
2018-10-05T00:09:29.775Z,59.65
2018-10-05T00:10:04.464Z,59.49
2018-10-05T00:10:39.052Z,59.11
2018-10-05T00:11:13.640Z,59.33
2018-10-05T00:11:48.664Z,59.33
2018-10-05T00:12:23.311Z,59.41
2018-10-05T00:12:58.018Z,59.38
2018-10-05T00:13:32.980Z,59.62
2018-10-05T00:14:08.187Z,59.56
2018-10-05T00:14:42.812Z,59.93
2018-10-05T00:15:17.657Z,59.96
2018-10-05T00:15:52.488Z,60.14
2018-10-05T00:16:27.139Z,59.98
2018-10-05T00:17:01.745Z,59.87
2018-10-05T00:17:36.371Z,60.12
2018-10-05T00:18:10.981Z,60.06
2018-10-05T00:18:45.614Z,60.15
2018-10-05T00:19:20.264Z,60.18
2018-10-05T00:19:55.066Z,60.31
2018-10-05T00:20:29.794Z,59.86
2018-10-05T00:21:04.572Z,60.37
2018-10-05T00:21:39.197Z,60.46
2018-10-05T00:22:13.823Z,60.21
2018-10-05T00:22:49.146Z,60.47
2018-10-05T00:23:23.796Z,60.37
2018-10-05T00:23:58.563Z,60.56
2018-10-05T00:24:33.189Z,60.08
2018-10-05T00:25:08.204Z,60.49
2018-10-05T00:25:42.855Z,60.52
2018-10-05T00:26:17.487Z,60.71
2018-10-05T00:26:52.167Z,60.41
2018-10-05T00:27:26.939Z,60.63
2018-10-05T00:28:01.607Z,60.72
2018-10-05T00:28:36.241Z,60.67
2018-10-05T00:29:10.857Z,60.70
2018-10-05T00:29:45.494Z,60.63
2018-10-05T00:30:20.259Z,60.72
2018-10-05T00:30:54.901Z,60.75
2018-10-05T00:31:29.544Z,60.94
2018-10-05T00:32:04.194Z,61.03
2018-10-05T00:32:38.788Z,61.21
2018-10-05T00:33:13.400Z,61.04
2018-10-05T00:33:48.597Z,61.02
2018-10-05T00:34:23.326Z,61.15
2018-10-05T00:34:58.113Z,61.11
2018-10-05T00:35:32.770Z,61.03
2018-10-05T00:36:07.754Z,61.27
2018-10-05T00:36:42.708Z,61.15
2018-10-05T00:37:17.340Z,60.99
2018-10-05T00:37:52.025Z,60.98
2018-10-05T00:38:27.012Z,61.21
2018-10-05T00:39:01.763Z,61.03
2018-10-05T00:39:36.373Z,61.32
2018-10-05T00:40:11.556Z,61.27
2018-10-05T00:40:46.169Z,61.37
2018-10-05T00:41:21.275Z,61.27
2018-10-05T00:41:56.031Z,61.41
2018-10-05T00:42:30.644Z,61.51
2018-10-05T00:43:05.276Z,61.57
2018-10-05T00:43:39.896Z,61.75
2018-10-05T00:44:14.520Z,61.53
2018-10-05T00:44:49.166Z,61.20
2018-10-05T00:45:23.856Z,61.03
2018-10-05T00:45:58.620Z,61.31
2018-10-05T00:46:33.328Z,61.34
2018-10-05T00:47:07.953Z,61.50
2018-10-05T00:47:42.563Z,61.24
2018-10-05T00:48:17.162Z,61.41
2018-10-05T00:48:51.789Z,61.62
2018-10-05T00:49:26.444Z,61.67
2018-10-05T00:50:01.122Z,61.23
2018-10-05T00:50:35.720Z,61.33
2018-10-05T00:51:10.339Z,61.39
2018-10-05T00:51:44.960Z,61.46
2018-10-05T00:52:19.623Z,61.53
2018-10-05T00:52:54.279Z,61.69
2018-10-05T00:53:29.205Z,62.05
2018-10-05T00:54:04.149Z,61.76
2018-10-05T00:54:38.747Z,61.77
2018-10-05T00:55:13.420Z,62.08
2018-10-05T00:55:48.389Z,62.09
2018-10-05T00:56:23.160Z,61.83
2018-10-05T00:56:58.064Z,61.64
2018-10-05T00:57:32.705Z,61.58
2018-10-05T00:58:07.333Z,61.71
2018-10-05T00:58:41.996Z,61.78
2018-10-05T00:59:16.621Z,61.48
2018-10-05T00:59:52.381Z,61.62
2018-10-05T01:00:27.110Z,61.91
2018-10-05T01:01:01.756Z,61.83
2018-10-05T01:01:36.394Z,62.29
2018-10-05T01:02:10.529Z,62.38
2018-10-05T01:02:45.213Z,62.33
2018-10-05T01:03:19.888Z,62.43
2018-10-05T01:03:54.547Z,62.64
2018-10-05T01:04:29.212Z,62.79
2018-10-05T01:05:04.258Z,62.52
2018-10-05T01:05:38.866Z,62.86
2018-10-05T01:06:13.510Z,63.23
2018-10-05T01:06:48.157Z,63.65
2018-10-05T01:07:23.278Z,63.52
2018-10-05T01:07:58.176Z,63.25
2018-10-05T01:08:32.782Z,63.38
2018-10-05T01:09:07.899Z,63.57
2018-10-05T01:09:42.512Z,63.53
2018-10-05T01:10:17.175Z,63.60
2018-10-05T01:10:51.831Z,63.44
2018-10-05T01:11:26.535Z,63.79
2018-10-05T01:12:01.312Z,63.78
2018-10-05T01:12:35.912Z,63.96
2018-10-05T01:13:10.579Z,64.33
2018-10-05T01:13:45.481Z,64.36
2018-10-05T01:14:20.249Z,64.59
2018-10-05T01:14:54.912Z,64.66
2018-10-05T01:15:29.643Z,64.26
2018-10-05T01:16:04.668Z,64.09
2018-10-05T01:16:39.300Z,64.61
2018-10-05T01:17:13.921Z,64.85
2018-10-05T01:17:48.627Z,64.44
2018-10-05T01:18:23.297Z,64.12
2018-10-05T01:18:57.944Z,64.05
2018-10-05T01:19:32.646Z,64.39
2018-10-05T01:20:07.667Z,64.09
2018-10-05T01:20:42.312Z,64.43
2018-10-05T01:21:16.961Z,64.25
2018-10-05T01:21:51.636Z,64.88
2018-10-05T01:22:26.366Z,65.08
2018-10-05T01:23:01.094Z,64.83
2018-10-05T01:23:35.718Z,64.82
2018-10-05T01:24:10.366Z,65.22
2018-10-05T01:24:45.007Z,65.38
2018-10-05T01:25:19.930Z,65.37
2018-10-05T01:25:54.728Z,65.25
2018-10-05T01:26:29.410Z,65.25
2018-10-05T01:27:04.434Z,65.54
2018-10-05T01:27:39.072Z,65.21
2018-10-05T01:28:14.069Z,65.47
2018-10-05T01:28:48.704Z,65.18
2018-10-05T01:29:23.369Z,65.10
2018-10-05T01:29:58.428Z,65.01
2018-10-05T01:30:33.092Z,64.96
2018-10-05T01:31:08.146Z,65.02
2018-10-05T01:31:42.756Z,64.76
2018-10-05T01:32:17.399Z,65.22
2018-10-05T01:32:52.514Z,65.15
2018-10-05T01:33:27.205Z,64.94
2018-10-05T01:34:01.887Z,64.63
2018-10-05T01:34:36.497Z,64.36
2018-10-05T01:35:11.142Z,64.96
2018-10-05T01:35:45.765Z,65.07
2018-10-05T01:36:20.442Z,64.99
2018-10-05T01:36:55.148Z,64.90
2018-10-05T01:37:29.809Z,64.58
2018-10-05T01:38:04.507Z,65.00
2018-10-05T01:38:39.171Z,64.56
2018-10-05T01:39:14.029Z,64.78
2018-10-05T01:39:53.893Z,64.83
2018-10-05T01:40:28.572Z,65.08
2018-10-05T01:41:03.260Z,64.78
2018-10-05T01:41:37.931Z,64.98
2018-10-05T01:42:12.703Z,64.87
2018-10-05T01:42:47.328Z,65.22
2018-10-05T01:43:22.268Z,65.13
2018-10-05T01:43:56.972Z,64.64
2018-10-05T01:44:31.610Z,65.23
2018-10-05T01:45:06.402Z,65.33
2018-10-05T01:45:41.097Z,65.52
2018-10-05T01:46:16.449Z,65.45
2018-10-05T01:46:51.508Z,65.65
2018-10-05T01:47:26.189Z,65.77
2018-10-05T01:48:00.863Z,65.60
2018-10-05T01:48:35.520Z,65.58
2018-10-05T01:49:10.173Z,65.33
2018-10-05T01:49:44.802Z,65.60
2018-10-05T01:50:19.528Z,65.29
2018-10-05T01:50:54.387Z,65.01
2018-10-05T01:51:32.120Z,65.45
2018-10-05T01:52:06.795Z,65.48
2018-10-05T01:52:41.427Z,65.35
2018-10-05T01:53:16.102Z,65.73
2018-10-05T01:53:50.954Z,65.63
2018-10-05T01:54:26.284Z,65.72
2018-10-05T01:55:00.933Z,65.49
2018-10-05T01:55:35.592Z,65.81
2018-10-05T01:56:10.273Z,65.83
2018-10-05T01:56:44.915Z,65.27
2018-10-05T01:57:20.060Z,65.66
2018-10-05T01:57:54.768Z,65.52
2018-10-05T01:58:29.392Z,65.69
2018-10-05T01:59:04.271Z,65.66
2018-10-05T01:59:38.880Z,65.45
2018-10-05T02:00:13.553Z,65.60
2018-10-05T02:00:48.231Z,65.84
2018-10-05T02:01:22.919Z,66.03
2018-10-05T02:01:57.568Z,65.89
2018-10-05T02:02:32.247Z,65.99
2018-10-05T02:03:07.074Z,65.38
2018-10-05T02:03:41.740Z,65.13
2018-10-05T02:04:16.379Z,65.47
2018-10-05T02:04:51.191Z,65.57
2018-10-05T02:05:25.867Z,65.73
2018-10-05T02:06:00.724Z,65.66
2018-10-05T02:06:35.396Z,65.79
2018-10-05T02:07:10.064Z,65.81
2018-10-05T02:07:44.706Z,66.16
2018-10-05T02:08:19.359Z,66.07
2018-10-05T02:08:54.044Z,65.91
2018-10-05T02:09:28.871Z,65.65
2018-10-05T02:10:03.590Z,65.89
2018-10-05T02:10:38.250Z,66.10
2018-10-05T02:11:13.517Z,65.57
2018-10-05T02:11:48.520Z,65.57
2018-10-05T02:12:23.363Z,65.60
2018-10-05T02:12:58.016Z,65.48
2018-10-05T02:13:32.660Z,65.33
2018-10-05T02:14:07.754Z,65.35
2018-10-05T02:14:42.771Z,65.14
2018-10-05T02:15:17.403Z,65.31
2018-10-05T02:15:52.099Z,65.08
2018-10-05T02:16:26.957Z,64.79
2018-10-05T02:17:01.827Z,64.94
2018-10-05T02:17:36.448Z,64.44
2018-10-05T02:18:11.160Z,64.94
2018-10-05T02:18:45.808Z,64.87
2018-10-05T02:19:20.645Z,65.17
2018-10-05T02:19:55.387Z,65.26
2018-10-05T02:20:30.049Z,65.37
2018-10-05T02:21:04.804Z,65.18
2018-10-05T02:21:39.464Z,65.10
2018-10-05T02:22:13.664Z,65.31
2018-10-05T02:22:48.313Z,65.40
2018-10-05T02:23:23.175Z,65.32
2018-10-05T02:23:57.844Z,65.09
2018-10-05T02:24:32.496Z,65.22
2018-10-05T02:25:07.160Z,65.23
2018-10-05T02:25:41.812Z,65.36
2018-10-05T02:26:16.472Z,65.34
2018-10-05T02:26:50.710Z,65.41
2018-10-05T02:27:25.438Z,65.49
2018-10-05T02:28:00.100Z,65.25
2018-10-05T02:28:34.748Z,65.23
2018-10-05T02:29:09.428Z,65.55
2018-10-05T02:29:44.081Z,65.67
2018-10-05T02:30:18.760Z,65.46
2018-10-05T02:30:53.469Z,65.71
2018-10-05T02:31:28.134Z,65.13
2018-10-05T02:32:02.790Z,64.84
2018-10-05T02:32:37.449Z,64.74
2018-10-05T02:33:12.418Z,64.81
2018-10-05T02:33:47.253Z,64.80
2018-10-05T02:34:21.924Z,64.86
2018-10-05T02:34:56.647Z,65.01
2018-10-05T02:35:30.776Z,65.14
2018-10-05T02:36:06.107Z,64.82
2018-10-05T02:36:40.996Z,64.70
2018-10-05T02:37:15.639Z,64.75
2018-10-05T02:37:50.299Z,64.37
2018-10-05T02:38:25.046Z,64.80
2018-10-05T02:38:59.662Z,64.94
2018-10-05T02:39:34.264Z,64.84
2018-10-05T02:40:08.884Z,64.70
2018-10-05T02:40:43.600Z,64.52
2018-10-05T02:41:18.663Z,64.89
2018-10-05T02:41:53.557Z,65.06
2018-10-05T02:42:28.181Z,65.26
2018-10-05T02:43:02.835Z,65.33
2018-10-05T02:43:37.432Z,65.31
2018-10-05T02:44:11.929Z,65.48
2018-10-05T02:44:46.517Z,65.40
2018-10-05T02:45:21.218Z,65.35
2018-10-05T02:45:55.885Z,65.13
2018-10-05T02:46:30.519Z,65.45
2018-10-05T02:47:05.165Z,65.74
2018-10-05T02:47:39.794Z,65.71
2018-10-05T02:48:14.488Z,65.58
2018-10-05T02:48:49.077Z,65.32
2018-10-05T02:49:23.788Z,65.76
2018-10-05T02:49:58.460Z,65.75
2018-10-05T02:50:33.081Z,65.71
2018-10-05T02:51:07.773Z,65.83
2018-10-05T02:51:42.365Z,65.77
2018-10-05T02:52:16.989Z,65.87
2018-10-05T02:52:51.879Z,65.78
2018-10-05T02:53:26.557Z,65.25
2018-10-05T02:54:01.199Z,65.31
2018-10-05T02:54:35.821Z,65.50
2018-10-05T02:55:10.448Z,65.54
2018-10-05T02:55:45.063Z,65.06
2018-10-05T02:56:19.743Z,65.15
2018-10-05T02:56:54.404Z,65.19
2018-10-05T02:57:29.072Z,64.93
2018-10-05T02:58:03.714Z,65.06
2018-10-05T02:58:38.332Z,65.31
2018-10-05T02:59:12.988Z,65.16
2018-10-05T02:59:47.608Z,64.97
2018-10-05T03:00:33.601Z,65.10
2018-10-05T03:01:19.314Z,65.20
2018-10-05T03:02:05.292Z,64.93
2018-10-05T03:02:39.978Z,65.30
2018-10-05T03:03:14.601Z,65.39
2018-10-05T03:03:49.315Z,65.66
2018-10-05T03:04:24.030Z,65.40
2018-10-05T03:04:59.149Z,65.63
2018-10-05T03:05:33.778Z,65.76
2018-10-05T03:06:08.424Z,65.65
2018-10-05T03:06:43.061Z,65.60
2018-10-05T03:07:17.720Z,65.90
2018-10-05T03:07:52.418Z,65.74
2018-10-05T03:08:27.076Z,66.02
2018-10-05T03:09:01.734Z,65.63
2018-10-05T03:09:36.692Z,65.75
2018-10-05T03:10:11.299Z,65.81
2018-10-05T03:10:45.932Z,65.75
2018-10-05T03:11:20.640Z,65.73
2018-10-05T03:12:29.153Z,66.06
2018-10-05T03:13:03.804Z,65.83
2018-10-05T03:13:38.574Z,66.06
2018-10-05T03:14:13.194Z,65.97
2018-10-05T03:14:47.820Z,66.03
2018-10-05T03:15:22.515Z,65.85
2018-10-05T03:15:57.183Z,65.99
2018-10-05T03:16:31.844Z,66.12
2018-10-05T03:17:06.478Z,66.12
2018-10-05T03:17:41.073Z,66.05
2018-10-05T03:18:15.732Z,66.11
2018-10-05T03:18:50.423Z,66.05
2018-10-05T03:19:25.277Z,66.21
2018-10-05T03:19:59.915Z,66.29
2018-10-05T03:20:34.528Z,66.12
2018-10-05T03:21:09.159Z,66.07
2018-10-05T03:21:44.176Z,66.57
2018-10-05T03:22:18.867Z,66.20
2018-10-05T03:22:53.201Z,66.11
2018-10-05T03:23:27.838Z,66.22
2018-10-05T03:24:02.464Z,66.27
2018-10-05T03:24:37.057Z,66.28
2018-10-05T03:25:11.989Z,66.38
2018-10-05T03:25:46.604Z,66.65
2018-10-05T03:26:21.293Z,66.52
2018-10-05T03:26:55.967Z,66.49
2018-10-05T03:27:30.655Z,66.47
2018-10-05T03:28:05.290Z,66.50
2018-10-05T03:28:39.928Z,67.01
2018-10-05T03:29:14.544Z,66.61
2018-10-05T03:29:49.166Z,66.71
2018-10-05T03:30:23.822Z,66.58
2018-10-05T03:30:58.473Z,66.77
2018-10-05T03:31:33.148Z,66.79
2018-10-05T03:32:07.765Z,66.96
2018-10-05T03:32:42.364Z,66.98
2018-10-05T03:33:17.159Z,67.11
2018-10-05T03:33:51.924Z,66.93
2018-10-05T03:34:26.612Z,66.83
2018-10-05T03:35:01.264Z,66.98
2018-10-05T03:35:35.888Z,66.85
2018-10-05T03:36:10.507Z,67.06
2018-10-05T03:36:45.161Z,67.03
2018-10-05T03:37:19.816Z,66.70
2018-10-05T03:37:54.473Z,66.72
2018-10-05T03:38:29.175Z,66.54
2018-10-05T03:39:04.158Z,66.82
2018-10-05T03:39:38.774Z,66.79
2018-10-05T03:40:13.403Z,66.79
2018-10-05T03:40:48.015Z,66.63
2018-10-05T03:41:22.754Z,66.45
2018-10-05T03:41:57.487Z,66.50
2018-10-05T03:42:32.145Z,66.51
2018-10-05T03:43:06.992Z,66.54
2018-10-05T03:43:41.632Z,66.45
2018-10-05T03:44:16.249Z,66.47
2018-10-05T03:44:51.071Z,66.36
2018-10-05T03:45:25.835Z,66.49
2018-10-05T03:46:00.454Z,66.48
2018-10-05T03:46:35.085Z,66.63
2018-10-05T03:47:09.743Z,66.52
2018-10-05T03:47:44.387Z,66.47
2018-10-05T03:48:19.047Z,67.11
2018-10-05T03:48:53.905Z,66.80
2018-10-05T03:49:28.559Z,67.15
2018-10-05T03:50:03.235Z,66.95
2018-10-05T03:50:37.874Z,67.18
2018-10-05T03:51:12.542Z,67.36
2018-10-05T03:51:47.534Z,66.84
2018-10-05T03:52:22.306Z,66.48
2018-10-05T03:52:57.013Z,66.38
2018-10-05T03:53:31.661Z,66.56
2018-10-05T03:54:06.684Z,66.67
2018-10-05T03:54:41.344Z,66.87
2018-10-05T03:55:15.974Z,66.81
2018-10-05T03:55:50.774Z,67.07
2018-10-05T03:56:25.571Z,67.02
2018-10-05T03:57:00.204Z,67.21
2018-10-05T03:57:34.861Z,67.22
2018-10-05T03:58:09.498Z,67.29
2018-10-05T03:58:44.139Z,67.33
2018-10-05T03:59:18.791Z,67.92
2018-10-05T03:59:53.548Z,67.40
2018-10-05T04:00:28.261Z,67.24
2018-10-05T04:01:02.924Z,67.29
2018-10-05T04:01:37.573Z,67.11
2018-10-05T04:02:11.720Z,67.25
2018-10-05T04:02:46.345Z,67.69
2018-10-05T04:03:21.068Z,67.72
2018-10-05T04:03:55.705Z,67.40
2018-10-05T04:04:30.352Z,66.90
2018-10-05T04:05:05.041Z,67.56
2018-10-05T04:05:39.667Z,67.61
2018-10-05T04:06:14.596Z,67.74
2018-10-05T04:06:50.018Z,67.53
2018-10-05T04:07:24.680Z,67.61
2018-10-05T04:07:59.367Z,67.65
2018-10-05T04:08:34.233Z,67.67
2018-10-05T04:09:10.600Z,67.67
2018-10-05T04:09:45.248Z,67.58
2018-10-05T04:10:19.984Z,67.49
2018-10-05T04:10:54.615Z,67.30
2018-10-05T04:11:29.277Z,67.48
2018-10-05T04:12:03.965Z,67.43
2018-10-05T04:12:38.593Z,67.58
2018-10-05T04:13:13.256Z,66.97
2018-10-05T04:13:48.146Z,66.93
2018-10-05T04:14:22.818Z,66.83
2018-10-05T04:14:57.429Z,67.02
2018-10-05T04:15:31.928Z,66.95
2018-10-05T04:16:06.941Z,66.70
2018-10-05T04:16:41.619Z,66.77
2018-10-05T04:17:16.341Z,66.43
2018-10-05T04:17:51.028Z,66.84
2018-10-05T04:18:25.647Z,66.71
2018-10-05T04:19:00.292Z,66.75
2018-10-05T04:19:35.057Z,66.66
2018-10-05T04:20:09.683Z,67.06
2018-10-05T04:20:44.420Z,66.44
2018-10-05T04:21:19.131Z,66.36
2018-10-05T04:21:53.789Z,66.57
2018-10-05T04:22:30.104Z,66.61
2018-10-05T04:23:04.769Z,66.62
2018-10-05T04:23:39.405Z,66.23
2018-10-05T04:24:14.147Z,66.72
2018-10-05T04:24:49.073Z,66.72
2018-10-05T04:25:23.699Z,66.77
2018-10-05T04:25:58.343Z,66.82
2018-10-05T04:26:32.695Z,66.97
2018-10-05T04:27:07.338Z,66.97
2018-10-05T04:27:41.636Z,67.04
2018-10-05T04:28:16.447Z,67.27
2018-10-05T04:28:51.136Z,67.36
2018-10-05T04:29:25.789Z,67.19
2018-10-05T04:30:00.621Z,67.47
2018-10-05T04:30:34.761Z,67.60
2018-10-05T04:31:09.453Z,67.62
2018-10-05T04:31:44.138Z,67.67
2018-10-05T04:32:18.973Z,67.51
2018-10-05T04:32:53.633Z,67.83
2018-10-05T04:33:28.265Z,67.21
2018-10-05T04:34:02.892Z,67.47
2018-10-05T04:34:37.503Z,67.74
2018-10-05T04:35:11.633Z,67.38
2018-10-05T04:35:46.563Z,67.62
2018-10-05T04:36:21.361Z,67.64
2018-10-05T04:36:56.003Z,67.54
2018-10-05T04:37:30.636Z,67.71
2018-10-05T04:38:05.314Z,67.59
2018-10-05T04:38:39.984Z,67.25
2018-10-05T04:39:14.649Z,67.10
2018-10-05T04:39:49.416Z,67.25
2018-10-05T04:40:24.781Z,67.85
2018-10-05T04:40:59.394Z,67.05
2018-10-05T04:41:34.061Z,67.17
2018-10-05T04:42:09.065Z,67.55
2018-10-05T04:42:43.715Z,67.55
2018-10-05T04:43:18.740Z,66.98
2018-10-05T04:43:53.525Z,66.87
2018-10-05T04:44:28.309Z,66.85
2018-10-05T04:45:02.902Z,67.43
2018-10-05T04:45:37.535Z,67.12
2018-10-05T04:46:12.195Z,67.06
2018-10-05T04:46:47.284Z,67.22
2018-10-05T04:47:22.248Z,67.54
2018-10-05T04:47:56.860Z,66.98
2018-10-05T04:48:31.610Z,67.20
2018-10-05T04:49:06.316Z,66.96
2018-10-05T04:49:40.989Z,67.14
2018-10-05T04:50:15.959Z,67.38
2018-10-05T04:50:50.789Z,67.34
2018-10-05T04:51:25.626Z,66.63
2018-10-05T04:52:00.756Z,66.68
2018-10-05T04:52:35.392Z,66.52
2018-10-05T04:53:10.040Z,66.57
2018-10-05T04:53:45.077Z,66.59
2018-10-05T04:54:19.775Z,66.66
2018-10-05T04:54:54.420Z,66.65
2018-10-05T04:55:29.055Z,66.47
2018-10-05T04:56:03.728Z,67.03
2018-10-05T04:56:38.333Z,66.62
2018-10-05T04:57:13.187Z,66.56
2018-10-05T04:57:47.939Z,66.64
2018-10-05T04:58:22.901Z,66.49
2018-10-05T04:58:57.492Z,66.51
2018-10-05T04:59:32.120Z,66.61
2018-10-05T05:00:06.821Z,66.42
2018-10-05T05:00:41.424Z,66.81
2018-10-05T05:01:16.110Z,66.30
2018-10-05T05:01:50.817Z,65.91
2018-10-05T05:02:25.436Z,66.36
2018-10-05T05:03:00.043Z,66.37
2018-10-05T05:03:34.879Z,66.87
2018-10-05T05:04:09.812Z,66.23
2018-10-05T05:04:44.624Z,65.83
2018-10-05T05:05:19.335Z,65.23
2018-10-05T05:05:54.013Z,66.58
2018-10-05T05:06:28.815Z,66.21
2018-10-05T05:07:03.803Z,66.30
2018-10-05T05:07:38.456Z,66.92
2018-10-05T05:08:13.573Z,66.87
2018-10-05T05:08:48.393Z,66.69
2018-10-05T05:09:23.008Z,65.90
2018-10-05T05:09:57.612Z,66.46
2018-10-05T05:10:32.256Z,66.87
2018-10-05T05:11:06.976Z,66.56
2018-10-05T05:11:41.583Z,66.68
2018-10-05T05:12:16.260Z,66.87
2018-10-05T05:12:51.131Z,67.34
2018-10-05T05:13:25.743Z,66.27
2018-10-05T05:13:59.913Z,66.69
2018-10-05T05:14:34.536Z,66.83
2018-10-05T05:15:09.229Z,66.82
2018-10-05T05:15:43.864Z,67.02
2018-10-05T05:16:18.781Z,66.57
2018-10-05T05:16:53.392Z,66.51
2018-10-05T05:17:28.081Z,66.48
2018-10-05T05:18:02.676Z,66.35
2018-10-05T05:18:37.287Z,66.23
2018-10-05T05:19:11.908Z,66.85
2018-10-05T05:19:46.843Z,66.90
2018-10-05T05:20:21.645Z,66.34
2018-10-05T05:20:56.407Z,66.51
2018-10-05T05:21:31.355Z,66.79
2018-10-05T05:22:05.631Z,66.44
2018-10-05T05:22:40.305Z,66.88
2018-10-05T05:23:15.024Z,67.00
2018-10-05T05:23:49.957Z,66.68
2018-10-05T05:24:24.637Z,66.86
2018-10-05T05:24:59.268Z,67.75
2018-10-05T05:25:34.047Z,67.61
2018-10-05T05:26:08.738Z,67.86
2018-10-05T05:26:43.571Z,66.98
2018-10-05T05:27:18.280Z,67.86
2018-10-05T05:27:52.947Z,67.67
2018-10-05T05:28:27.708Z,67.25
2018-10-05T05:29:02.353Z,68.01
2018-10-05T05:29:37.140Z,67.33
2018-10-05T05:30:11.792Z,67.39
2018-10-05T05:30:46.460Z,67.49
2018-10-05T05:31:21.128Z,68.04
2018-10-05T05:31:55.752Z,67.61
2018-10-05T05:32:30.364Z,67.49
2018-10-05T05:33:05.011Z,67.83
2018-10-05T05:33:39.770Z,67.30
2018-10-05T05:34:14.609Z,67.62
2018-10-05T05:34:49.440Z,67.40
2018-10-05T05:35:24.068Z,67.07
2018-10-05T05:35:58.697Z,66.96
2018-10-05T05:36:33.363Z,66.58
2018-10-05T05:37:07.992Z,66.73
2018-10-05T05:37:42.618Z,67.03
2018-10-05T05:38:17.357Z,66.46
2018-10-05T05:38:52.100Z,66.69
2018-10-05T05:39:26.676Z,67.21
2018-10-05T05:40:01.501Z,66.49
2018-10-05T05:40:36.106Z,66.61
2018-10-05T05:41:10.848Z,67.20
2018-10-05T05:41:45.762Z,66.88
2018-10-05T05:42:19.979Z,66.89
2018-10-05T05:42:54.658Z,67.20
2018-10-05T05:43:29.286Z,67.16
2018-10-05T05:44:03.964Z,66.48
2018-10-05T05:44:38.774Z,66.85
2018-10-05T05:45:13.509Z,66.96
2018-10-05T05:45:48.168Z,66.96
2018-10-05T05:46:23.092Z,67.14
2018-10-05T05:46:58.227Z,67.53
2018-10-05T05:47:32.988Z,67.05
2018-10-05T05:48:08.488Z,66.70
2018-10-05T05:48:43.142Z,66.64
2018-10-05T05:49:17.977Z,67.06
2018-10-05T05:49:52.657Z,66.87
2018-10-05T05:50:27.317Z,66.67
2018-10-05T05:51:01.959Z,67.05
2018-10-05T05:51:36.588Z,66.21
2018-10-05T05:52:11.211Z,66.06
2018-10-05T05:52:45.938Z,66.51
2018-10-05T05:53:20.690Z,66.11
2018-10-05T05:53:55.527Z,67.13
2018-10-05T05:54:30.382Z,66.25
2018-10-05T05:55:05.864Z,66.27
2018-10-05T05:55:40.460Z,66.43
2018-10-05T05:56:15.178Z,66.38
2018-10-05T05:56:49.925Z,66.24
2018-10-05T05:57:24.578Z,66.21
2018-10-05T05:57:58.712Z,66.01
2018-10-05T05:58:33.425Z,66.05
2018-10-05T05:59:08.231Z,66.14
2018-10-05T05:59:42.866Z,66.17
2018-10-05T06:00:17.565Z,66.24
2018-10-05T06:00:52.428Z,66.07
2018-10-05T06:01:27.032Z,66.25
2018-10-05T06:02:01.765Z,65.99
2018-10-05T06:02:36.523Z,66.11
2018-10-05T06:03:11.152Z,65.79
2018-10-05T06:04:19.204Z,65.86
2018-10-05T06:04:54.228Z,65.90
2018-10-05T06:05:28.873Z,65.86
2018-10-05T06:06:03.896Z,65.82
2018-10-05T06:06:38.545Z,65.52
2018-10-05T06:07:13.188Z,65.98
2018-10-05T06:07:47.794Z,65.37
2018-10-05T06:08:22.512Z,65.33
2018-10-05T06:08:57.108Z,64.85
2018-10-05T06:09:31.937Z,65.05
2018-10-05T06:10:06.913Z,64.91
2018-10-05T06:10:41.540Z,64.59
2018-10-05T06:11:16.130Z,65.19
2018-10-05T06:11:50.800Z,65.19
2018-10-05T06:12:25.428Z,65.20
2018-10-05T06:13:00.074Z,64.98
2018-10-05T06:13:34.943Z,65.01
2018-10-05T06:14:09.593Z,64.91
2018-10-05T06:14:44.284Z,65.38
2018-10-05T06:15:18.968Z,64.78
2018-10-05T06:15:54.094Z,64.22
2018-10-05T06:16:28.939Z,64.53
2018-10-05T06:17:04.189Z,64.79
2018-10-05T06:17:38.860Z,64.07
2018-10-05T06:18:13.720Z,64.19
2018-10-05T06:18:47.877Z,63.84
2018-10-05T06:19:22.545Z,64.05
2018-10-05T06:19:57.148Z,64.13
2018-10-05T06:20:32.132Z,64.37
2018-10-05T06:21:06.845Z,64.24
2018-10-05T06:21:41.595Z,64.24
2018-10-05T06:22:16.457Z,64.00
2018-10-05T06:22:51.176Z,64.70
2018-10-05T06:23:25.797Z,63.88
2018-10-05T06:24:00.714Z,64.37
2018-10-05T06:24:35.388Z,64.54
2018-10-05T06:25:10.096Z,64.54
2018-10-05T06:25:44.744Z,64.39
2018-10-05T06:26:19.402Z,64.45
2018-10-05T06:26:54.048Z,64.29
2018-10-05T06:27:29.201Z,64.13
2018-10-05T06:28:04.433Z,63.91
2018-10-05T06:28:39.160Z,63.74
2018-10-05T06:29:13.828Z,64.32
2018-10-05T06:29:48.805Z,63.84
2018-10-05T06:30:23.440Z,63.79
2018-10-05T06:30:58.185Z,63.20
2018-10-05T06:31:33.024Z,62.90
2018-10-05T06:32:07.740Z,63.25
2018-10-05T06:32:42.339Z,63.44
2018-10-05T06:33:16.965Z,62.41
2018-10-05T06:33:51.790Z,63.36
2018-10-05T06:34:26.442Z,63.62
2018-10-05T06:35:01.132Z,63.50
2018-10-05T06:35:35.916Z,63.30
2018-10-05T06:36:10.557Z,63.37
2018-10-05T06:36:45.157Z,63.22
2018-10-05T06:37:19.793Z,63.35
2018-10-05T06:37:54.510Z,63.21
2018-10-05T06:38:29.619Z,63.16
2018-10-05T06:39:05.939Z,63.28
2018-10-05T06:39:40.713Z,63.22
2018-10-05T06:40:15.529Z,62.71
2018-10-05T06:40:50.184Z,62.77
2018-10-05T06:41:24.800Z,62.37
2018-10-05T06:41:59.477Z,62.42
2018-10-05T06:42:34.488Z,62.50
2018-10-05T06:43:09.269Z,62.40
2018-10-05T06:43:43.904Z,62.52
2018-10-05T06:44:18.524Z,62.50
2018-10-05T06:44:53.110Z,62.58
2018-10-05T06:45:27.337Z,62.69
2018-10-05T06:46:02.441Z,62.47
2018-10-05T06:46:37.258Z,62.59
2018-10-05T06:47:11.934Z,62.54
2018-10-05T06:47:46.594Z,62.24
2018-10-05T06:48:21.216Z,62.53
2018-10-05T06:48:55.845Z,62.63
2018-10-05T06:49:30.536Z,62.35
2018-10-05T06:50:05.668Z,62.32
2018-10-05T06:50:40.342Z,62.22
2018-10-05T06:51:15.192Z,62.15
2018-10-05T06:51:49.824Z,62.31
2018-10-05T06:52:24.598Z,62.42
2018-10-05T06:52:59.305Z,62.33
2018-10-05T06:53:34.127Z,61.94
2018-10-05T06:54:08.842Z,61.63
2018-10-05T06:54:43.448Z,61.73
2018-10-05T06:55:18.544Z,61.70
2018-10-05T06:55:53.180Z,62.11
2018-10-05T06:56:27.842Z,61.72
2018-10-05T06:57:02.568Z,61.57
2018-10-05T06:57:37.327Z,61.55
2018-10-05T06:58:11.930Z,61.50
2018-10-05T06:58:46.568Z,61.63
2018-10-05T06:59:21.155Z,61.42
2018-10-05T06:59:55.798Z,61.43
2018-10-05T07:00:30.515Z,61.58
2018-10-05T07:01:05.188Z,61.38
2018-10-05T07:01:39.854Z,61.60
2018-10-05T07:02:14.732Z,61.27
2018-10-05T07:02:49.367Z,61.19
2018-10-05T07:03:24.003Z,61.29
2018-10-05T07:03:58.751Z,60.94
2018-10-05T07:04:34.036Z,61.03
2018-10-05T07:05:08.829Z,61.03
2018-10-05T07:05:43.528Z,60.91
2018-10-05T07:06:18.165Z,61.04
2018-10-05T07:06:52.813Z,60.69
2018-10-05T07:07:28.078Z,61.05
2018-10-05T07:08:03.234Z,60.50
2018-10-05T07:08:38.095Z,60.46
2018-10-05T07:09:12.801Z,60.45
2018-10-05T07:09:47.419Z,60.59
2018-10-05T07:10:22.065Z,60.41
2018-10-05T07:10:56.719Z,60.18
2018-10-05T07:11:32.059Z,60.30
2018-10-05T07:12:07.037Z,60.04
2018-10-05T07:12:41.731Z,60.28
2018-10-05T07:13:16.360Z,60.29
2018-10-05T07:13:51.072Z,60.41
2018-10-05T07:14:25.902Z,60.14
2018-10-05T07:15:00.636Z,60.06
2018-10-05T07:15:35.390Z,60.23
2018-10-05T07:16:10.093Z,60.23
2018-10-05T07:16:44.692Z,60.39
2018-10-05T07:17:19.491Z,60.13
2018-10-05T07:17:54.120Z,59.87
2018-10-05T07:18:28.776Z,60.23
2018-10-05T07:19:03.712Z,60.03
2018-10-05T07:19:38.448Z,59.82
2018-10-05T07:20:13.084Z,59.82
2018-10-05T07:20:47.731Z,59.83
2018-10-05T07:21:22.655Z,59.82
2018-10-05T07:21:57.465Z,59.79
2018-10-05T07:22:32.132Z,59.67
2018-10-05T07:23:07.178Z,59.96
2018-10-05T07:23:41.839Z,59.40
2018-10-05T07:24:16.562Z,59.76
2018-10-05T07:24:51.152Z,59.48
2018-10-05T07:25:25.762Z,59.39
2018-10-05T07:26:01.067Z,59.71
2018-10-05T07:26:35.768Z,59.35
2018-10-05T07:27:10.401Z,59.42
2018-10-05T07:27:45.389Z,59.45
2018-10-05T07:28:20.062Z,59.68
2018-10-05T07:28:54.820Z,59.41